createdAt,value
2022-10-01T00:03:45.266Z,12.40
2022-10-01T00:08:49.900Z,10.73
2022-10-01T00:13:53.895Z,11.68
2022-10-01T00:18:58.341Z,11.15
2022-10-01T00:24:04.956Z,10.53
2022-10-01T00:29:11.276Z,11.35
2022-10-01T00:34:15.816Z,11.75
2022-10-01T00:39:18.536Z,11.48
2022-10-01T00:44:32.664Z,11.00
2022-10-01T00:49:37.397Z,10.43
2022-10-01T00:55:06.054Z,9.55
2022-10-01T01:00:10.515Z,8.00
2022-10-01T01:05:13.843Z,10.43
2022-10-01T01:10:27.303Z,11.20
2022-10-01T01:15:42.286Z,9.98
2022-10-01T01:26:42.709Z,8.45
2022-10-01T01:31:46.774Z,8.65
2022-10-01T01:36:56.237Z,5.25
2022-10-01T01:42:04.089Z,5.35
2022-10-01T01:47:07.851Z,3.58
2022-10-01T01:52:13.741Z,2.95
2022-10-01T01:57:20.584Z,3.40
2022-10-01T02:02:30.283Z,3.03
2022-10-01T02:07:33.031Z,4.22
2022-10-01T02:13:08.663Z,3.60
2022-10-01T02:18:17.043Z,5.00
2022-10-01T02:23:26.405Z,5.40
2022-10-01T02:28:29.865Z,3.22
2022-10-01T02:33:37.131Z,2.63
2022-10-01T02:38:42.644Z,3.53
2022-10-01T02:44:06.377Z,3.38
2022-10-01T02:49:09.470Z,3.50
2022-10-01T02:54:18.394Z,3.55
2022-10-01T02:59:22.861Z,2.90
2022-10-01T03:04:25.555Z,3.20
2022-10-01T03:09:28.275Z,3.00
2022-10-01T03:14:32.695Z,2.78
2022-10-01T03:19:35.423Z,2.63
2022-10-01T03:24:38.194Z,3.60
2022-10-01T03:29:40.903Z,4.18
2022-10-01T03:34:43.712Z,3.60
2022-10-01T03:39:46.463Z,2.33
2022-10-01T03:44:49.180Z,2.95
2022-10-01T03:49:52.094Z,3.50
2022-10-01T03:54:54.775Z,2.80
2022-10-01T03:59:57.421Z,2.95
2022-10-01T04:05:00.122Z,2.63
2022-10-01T04:10:02.817Z,3.53
2022-10-01T04:15:06.217Z,2.42
2022-10-01T04:20:09.023Z,4.00
2022-10-01T04:25:12.425Z,2.85
2022-10-01T04:30:15.145Z,3.05
2022-10-01T04:35:18.106Z,0.82
2022-10-01T04:40:20.784Z,1.85
2022-10-01T04:45:23.879Z,2.35
2022-10-01T04:50:27.671Z,2.22
2022-10-01T04:55:30.391Z,4.57
2022-10-01T05:00:33.135Z,2.45
2022-10-01T05:05:35.918Z,2.00
2022-10-01T05:10:38.897Z,1.48
2022-10-01T05:15:41.755Z,1.75
2022-10-01T05:20:44.517Z,1.65
2022-10-01T05:25:47.364Z,1.50
2022-10-01T05:30:51.377Z,2.30
2022-10-01T05:35:54.165Z,1.33
2022-10-01T05:40:56.930Z,1.77
2022-10-01T05:46:03.660Z,1.90
2022-10-01T05:51:08.536Z,1.50
2022-10-01T05:56:11.879Z,1.40
2022-10-01T06:01:14.961Z,1.35
2022-10-01T06:06:24.524Z,1.75
2022-10-01T06:11:27.917Z,0.73
2022-10-01T06:16:32.107Z,1.03
2022-10-01T06:21:36.248Z,0.80
2022-10-01T06:26:39.276Z,1.23
2022-10-01T06:31:42.159Z,0.52
2022-10-01T06:36:44.859Z,0.70
2022-10-01T06:41:50.223Z,0.90
2022-10-01T06:52:14.164Z,1.00
2022-10-01T06:57:16.903Z,0.50
2022-10-01T07:02:29.182Z,6.72
2022-10-01T07:07:33.606Z,0.82
2022-10-01T07:12:37.665Z,0.50
2022-10-01T07:17:45.298Z,0.80
2022-10-01T07:22:50.010Z,0.70
2022-10-01T07:28:00.947Z,1.10
2022-10-01T07:33:03.974Z,1.20
2022-10-01T07:38:07.781Z,1.88
2022-10-01T07:43:10.597Z,1.10
2022-10-01T07:48:15.414Z,0.80
2022-10-01T07:53:18.276Z,1.23
2022-10-01T07:58:24.412Z,2.38
2022-10-01T08:03:27.219Z,1.05
2022-10-01T08:08:31.561Z,0.60
2022-10-01T08:13:35.411Z,1.33
2022-10-01T08:18:38.640Z,0.77
2022-10-01T08:23:41.285Z,0.70
2022-10-01T08:28:44.007Z,2.30
2022-10-01T08:33:46.726Z,1.98
2022-10-01T08:38:49.870Z,0.70
2022-10-01T08:43:52.945Z,1.17
2022-10-01T08:49:21.042Z,0.82
2022-10-01T08:54:28.823Z,0.55
2022-10-01T08:59:55.197Z,1.00
2022-10-01T09:05:01.733Z,2.13
2022-10-01T09:10:26.052Z,5.20
2022-10-01T09:15:45.854Z,1.40
2022-10-01T09:20:53.992Z,2.40
2022-10-01T09:25:58.622Z,2.10
2022-10-01T09:31:12.048Z,6.57
2022-10-01T09:36:24.006Z,2.80
2022-10-01T09:41:27.013Z,3.75
2022-10-01T09:46:29.760Z,2.88
2022-10-01T09:51:47.653Z,3.00
2022-10-01T09:56:58.963Z,3.28
2022-10-01T10:02:02.916Z,3.30
2022-10-01T10:07:06.418Z,2.80
2022-10-01T10:12:26.312Z,4.28
2022-10-01T10:17:29.008Z,3.45
2022-10-01T10:22:31.704Z,4.30
2022-10-01T10:27:36.651Z,3.70
2022-10-01T10:32:39.328Z,2.95
2022-10-01T10:37:51.126Z,3.33
2022-10-01T10:42:55.428Z,8.52
2022-10-01T10:47:58.470Z,5.60
2022-10-01T10:53:25.036Z,13.32
2022-10-01T10:58:33.601Z,12.13
2022-10-01T11:03:38.787Z,14.02
2022-10-01T11:08:42.730Z,10.55
2022-10-01T11:14:10.928Z,15.55
2022-10-01T11:19:18.673Z,8.00
2022-10-01T11:24:27.161Z,8.52
2022-10-01T11:29:32.632Z,6.88
2022-10-01T11:34:49.942Z,7.28
2022-10-01T11:39:56.065Z,8.38
2022-10-01T11:45:08.040Z,9.30
2022-10-01T11:50:25.615Z,7.57
2022-10-01T11:55:51.592Z,7.45
2022-10-01T12:01:16.975Z,10.95
2022-10-01T12:06:54.146Z,9.10
2022-10-01T12:12:07.133Z,9.80
2022-10-01T12:17:19.914Z,7.60
2022-10-01T12:22:26.790Z,9.50
2022-10-01T12:27:40.432Z,10.88
2022-10-01T12:33:01.605Z,14.07
2022-10-01T12:38:14.139Z,14.75
2022-10-01T12:43:36.324Z,13.35
2022-10-01T12:48:48.778Z,10.88
2022-10-01T12:54:03.416Z,13.63
2022-10-01T12:59:25.299Z,17.08
2022-10-01T13:05:00.285Z,17.83
2022-10-01T13:10:21.984Z,14.05
2022-10-01T13:15:29.173Z,13.57
2022-10-01T13:20:44.298Z,11.70
2022-10-01T13:31:11.814Z,11.15
2022-10-01T13:36:17.228Z,10.93
2022-10-01T13:41:22.582Z,10.13
2022-10-01T13:46:31.581Z,9.68
2022-10-01T13:51:36.353Z,9.38
2022-10-01T13:56:39.134Z,10.38
2022-10-01T14:01:42.615Z,8.50
2022-10-01T14:06:57.849Z,12.38
2022-10-01T14:12:22.026Z,14.15
2022-10-01T14:17:32.532Z,14.80
2022-10-01T14:22:53.751Z,11.23
2022-10-01T14:28:17.911Z,10.07
2022-10-01T14:33:42.996Z,7.97
2022-10-01T14:38:45.824Z,6.90
2022-10-01T14:43:49.172Z,4.95
2022-10-01T14:49:01.902Z,6.13
2022-10-01T14:54:04.628Z,5.90
2022-10-01T14:59:09.853Z,5.47
2022-10-01T15:04:22.280Z,7.90
2022-10-01T15:09:25.054Z,7.97
2022-10-01T15:14:28.392Z,8.88
2022-10-01T15:19:31.581Z,5.72
2022-10-01T15:24:39.750Z,7.75
2022-10-01T15:29:43.236Z,5.68
2022-10-01T15:34:52.409Z,7.85
2022-10-01T15:39:55.970Z,5.00
2022-10-01T15:45:07.697Z,7.22
2022-10-01T15:50:10.463Z,9.55
2022-10-01T15:55:17.686Z,5.70
2022-10-01T16:00:26.460Z,4.07
2022-10-01T16:05:33.643Z,4.63
2022-10-01T16:10:41.352Z,5.65
2022-10-01T16:15:44.365Z,4.88
2022-10-01T16:20:56.963Z,3.90
2022-10-01T16:25:59.726Z,3.83
2022-10-01T16:31:04.814Z,2.35
2022-10-01T16:41:12.514Z,3.28
2022-10-01T16:46:15.264Z,2.40
2022-10-01T16:51:19.322Z,3.20
2022-10-01T16:56:26.883Z,4.03
2022-10-01T17:01:31.502Z,4.15
2022-10-01T17:06:34.746Z,6.60
2022-10-01T17:11:39.217Z,8.25
2022-10-01T17:16:42.424Z,5.55
2022-10-01T17:21:45.580Z,5.95
2022-10-01T17:26:48.586Z,2.80
2022-10-01T17:31:53.621Z,4.32
2022-10-01T17:36:56.561Z,4.60
2022-10-01T17:41:59.254Z,2.83
2022-10-01T17:47:01.991Z,3.10
2022-10-01T17:52:06.102Z,4.10
2022-10-01T17:57:11.269Z,4.72
2022-10-01T18:07:37.733Z,5.00
2022-10-01T18:12:40.688Z,6.25
2022-10-01T18:17:51.061Z,6.97
2022-10-01T18:22:54.284Z,6.45
2022-10-01T18:27:57.047Z,6.07
2022-10-01T18:33:01.823Z,6.70
2022-10-01T18:38:22.009Z,6.78
2022-10-01T18:43:26.102Z,5.78
2022-10-01T18:48:41.418Z,6.35
2022-10-01T18:53:50.130Z,6.15
2022-10-01T18:59:23.727Z,6.03
2022-10-01T19:04:41.616Z,6.47
2022-10-01T19:10:19.219Z,5.70
2022-10-01T19:15:39.784Z,5.38
2022-10-01T19:21:03.146Z,4.75
2022-10-01T19:26:12.030Z,5.40
2022-10-01T19:31:33.349Z,5.32
2022-10-01T19:36:39.666Z,4.75
2022-10-01T19:41:48.306Z,4.70
2022-10-01T19:46:52.073Z,4.43
2022-10-01T19:52:02.024Z,5.30
2022-10-01T19:57:13.720Z,4.30
2022-10-01T20:02:39.388Z,4.40
2022-10-01T20:07:59.358Z,4.05
2022-10-01T20:13:23.660Z,4.28
2022-10-01T20:19:23.619Z,5.03
2022-10-01T20:24:45.035Z,4.90
2022-10-01T20:30:07.430Z,6.22
2022-10-01T20:35:30.678Z,5.45
2022-10-01T20:40:56.083Z,5.93
2022-10-01T20:46:03.347Z,6.10
2022-10-01T20:51:11.029Z,6.43
2022-10-01T20:56:45.822Z,6.70
2022-10-01T21:02:02.826Z,5.90
2022-10-01T21:07:25.832Z,6.28
2022-10-01T21:12:42.850Z,6.40
2022-10-01T21:17:58.236Z,6.85
2022-10-01T21:23:27.997Z,6.95
2022-10-01T21:28:52.248Z,6.78
2022-10-01T21:34:28.941Z,6.68
2022-10-01T21:39:34.231Z,5.85
2022-10-01T21:44:49.000Z,5.40
2022-10-01T21:55:15.190Z,5.28
2022-10-01T22:00:23.449Z,5.28
2022-10-01T22:06:10.267Z,5.07
2022-10-01T22:11:18.113Z,4.40
2022-10-01T22:16:22.493Z,4.78
2022-10-01T22:21:26.494Z,5.25
2022-10-01T22:26:31.562Z,5.30
2022-10-01T22:31:36.179Z,5.60
2022-10-01T22:36:56.983Z,5.63
2022-10-01T22:42:17.005Z,5.70
2022-10-01T22:47:46.281Z,5.10
2022-10-01T22:53:13.321Z,5.43
2022-10-01T22:58:33.397Z,5.70
2022-10-01T23:04:13.325Z,6.03
2022-10-01T23:09:20.244Z,5.55
2022-10-01T23:14:38.430Z,6.00
2022-10-01T23:20:11.705Z,6.35
2022-10-01T23:25:14.377Z,7.22
2022-10-01T23:30:18.608Z,6.75
2022-10-01T23:35:23.401Z,6.60
2022-10-01T23:40:35.378Z,6.20
2022-10-01T23:45:40.475Z,7.03
2022-10-01T23:51:05.677Z,6.93
2022-10-01T23:56:29.648Z,7.05
